Time;durP1;ratioP1;P1;durP2;ratioP2;P2;SDS_P1;SDS_P2;PMS_P1;PMS_P2;Temp;Humidity;BMP_temperature;BMP_pressure;BME280_temperature;BME280_humidity;BME280_pressure;Samples;Min_cycle;Max_cycle;Signal;HPM_P1;HPM_P2
2022/10/30 00:01:52;;;;;;;8.90;8.07;;;;;;;13.26;100.00;100622.34;4989352;28;20223;-75
2022/10/30 00:04:18;;;;;;;8.70;7.90;;;;;;;13.25;100.00;100623.22;5002230;28;20596;-75
2022/10/30 00:06:43;;;;;;;8.67;7.87;;;;;;;13.25;100.00;100628.44;4994422;28;20213;-74
2022/10/30 00:09:09;;;;;;;8.47;7.13;;;;;;;13.24;100.00;100617.19;4984625;28;20201;-75
2022/10/30 00:11:35;;;;;;;8.93;7.80;;;;;;;13.24;100.00;100626.72;4987299;28;20480;-74
2022/10/30 00:14:00;;;;;;;7.90;7.10;;;;;;;13.24;100.00;100629.31;4983804;28;20948;-74
2022/10/30 00:16:25;;;;;;;8.30;7.50;;;;;;;13.23;100.00;100614.63;4986243;28;20191;-75
2022/10/30 00:18:51;;;;;;;7.30;6.60;;;;;;;13.24;100.00;100616.31;4986132;28;20223;-75
2022/10/30 00:21:17;;;;;;;7.60;6.90;;;;;;;13.24;100.00;100609.41;4987039;28;20569;-75
2022/10/30 00:23:47;;;;;;;7.77;7.03;;;;;;;13.26;100.00;100614.56;4997949;28;20201;-74
2022/10/30 00:26:14;;;;;;;7.60;6.87;;;;;;;13.26;100.00;100618.03;4983911;28;20718;-74
2022/10/30 00:28:39;;;;;;;6.97;6.27;;;;;;;13.26;100.00;100611.97;4990882;28;20257;-74
2022/10/30 00:31:05;;;;;;;7.80;7.00;;;;;;;13.25;100.00;100607.63;5001749;28;20178;-74
2022/10/30 00:33:31;;;;;;;7.80;7.10;;;;;;;13.23;100.00;100612.88;4985356;28;20916;-74
2022/10/30 00:35:56;;;;;;;9.57;7.47;;;;;;;13.22;100.00;100611.16;4986215;28;20210;-75
2022/10/30 00:38:22;;;;;;;7.27;6.57;;;;;;;13.21;100.00;100608.59;4987062;28;20212;-75
2022/10/30 00:40:47;;;;;;;7.40;6.70;;;;;;;13.20;100.00;100602.53;4981764;28;20211;-74
2022/10/30 00:43:36;;;;;;;8.07;7.27;;;;;;;13.19;100.00;100606.00;4985430;28;20220;-75
2022/10/30 00:46:19;;;;;;;8.27;7.30;;;;;;;13.16;100.00;100608.63;4983291;28;20275;-74
2022/10/30 00:48:50;;;;;;;8.13;7.17;;;;;;;13.14;100.00;100601.75;4986283;28;20201;-74
2022/10/30 00:51:17;;;;;;;7.63;6.33;;;;;;;13.10;100.00;100599.19;4986057;28;20672;-74
2022/10/30 00:53:43;;;;;;;7.40;6.70;;;;;;;13.09;100.00;100597.47;4983373;28;20231;-75
2022/10/30 00:56:10;;;;;;;7.27;6.50;;;;;;;13.08;100.00;100605.31;4979196;28;20272;-75
2022/10/30 00:58:40;;;;;;;7.23;6.23;;;;;;;13.06;100.00;100604.47;4986139;28;20926;-74
2022/10/30 01:01:11;;;;;;;7.57;6.77;;;;;;;13.04;100.00;100603.63;4981216;28;20214;-74
2022/10/30 01:03:38;;;;;;;8.77;6.93;;;;;;;13.03;100.00;100604.50;4985640;28;20294;-74
2022/10/30 01:06:07;;;;;;;8.93;7.37;;;;;;;13.04;100.00;100601.03;4999743;28;20187;-75
2022/10/30 01:08:33;;;;;;;6.90;6.30;;;;;;;13.05;100.00;100594.94;4989836;28;20187;-75
2022/10/30 01:11:01;;;;;;;7.77;7.07;;;;;;;13.06;100.00;100592.34;4987573;28;20546;-74
2022/10/30 01:13:27;;;;;;;7.27;6.57;;;;;;;13.08;100.00;100598.34;4983942;28;20214;-74
2022/10/30 01:16:16;;;;;;;6.90;6.30;;;;;;;13.09;100.00;100592.28;4983103;28;20218;-75
2022/10/30 01:18:48;;;;;;;7.50;6.80;;;;;;;13.09;100.00;100589.69;4983826;28;20937;-75
2022/10/30 01:21:41;;;;;;;8.63;6.87;;;;;;;13.09;100.00;100591.44;4986247;28;20214;-75
2022/10/30 01:24:22;;;;;;;7.53;6.83;;;;;;;13.07;100.00;100575.88;4979522;28;20811;-75
2022/10/30 01:27:07;;;;;;;6.93;6.23;;;;;;;13.07;100.00;100580.19;4986509;28;20280;-75
2022/10/30 01:30:00;;;;;;;7.00;6.33;;;;;;;13.05;100.00;100584.56;4988214;28;20210;-75
2022/10/30 01:32:43;;;;;;;6.90;6.17;;;;;;;13.03;100.00;100587.19;4987467;28;20173;-75
2022/10/30 01:35:33;;;;;;;7.20;6.50;;;;;;;13.00;100.00;100584.63;4984505;28;20220;-74
2022/10/30 01:38:04;;;;;;;7.13;6.27;;;;;;;12.98;100.00;100588.97;4987604;28;20196;-74
2022/10/30 01:40:29;;;;;;;7.00;6.10;;;;;;;12.96;100.00;100589.00;4981273;28;20217;-74
2022/10/30 01:42:57;;;;;;;6.93;6.33;;;;;;;12.95;100.00;100583.81;4985009;28;20205;-75
2022/10/30 01:45:25;;;;;;;7.10;6.13;;;;;;;12.93;100.00;100586.44;4985874;28;20599;-74
2022/10/30 01:47:50;;;;;;;6.87;6.27;;;;;;;12.91;100.00;100574.38;4988362;28;20234;-75
2022/10/30 01:50:20;;;;;;;6.73;6.07;;;;;;;12.91;100.00;100585.59;4988691;28;20198;-74
2022/10/30 01:52:50;;;;;;;7.30;6.60;;;;;;;12.91;100.00;100592.56;4982739;28;20282;-74
2022/10/30 01:55:38;;;;;;;7.33;6.23;;;;;;;12.90;100.00;100588.25;4983082;28;20343;-75
2022/10/30 01:58:25;;;;;;;7.37;6.67;;;;;;;12.90;100.00;100583.88;4982612;28;20172;-74
2022/10/30 02:00:54;;;;;;;6.83;6.17;;;;;;;12.89;100.00;100587.38;5013342;28;20215;-74
2022/10/30 02:03:20;;;;;;;6.83;6.13;;;;;;;12.87;100.00;100586.53;5001828;28;20580;-75
2022/10/30 02:05:51;;;;;;;6.70;6.10;;;;;;;12.86;100.00;100584.81;5010085;28;20231;-74
2022/10/30 02:08:16;;;;;;;7.37;6.60;;;;;;;12.82;100.00;100583.16;4996445;28;20687;-74
2022/10/30 02:10:45;;;;;;;7.57;5.83;;;;;;;12.77;100.00;100579.75;4995097;28;20212;-75
2022/10/30 02:13:10;;;;;;;9.13;6.17;;;;;;;12.71;100.00;100572.03;4988749;28;20305;-74
2022/10/30 02:15:36;;;;;;;8.00;6.27;;;;;;;12.65;100.00;100570.38;4991038;28;20816;-75
2022/10/30 02:18:02;;;;;;;6.03;5.47;;;;;;;12.60;100.00;100574.78;4984910;28;20199;-74
2022/10/30 02:20:27;;;;;;;6.70;6.10;;;;;;;12.56;100.00;100567.91;4987136;28;20224;-74
2022/10/30 02:22:53;;;;;;;6.40;5.80;;;;;;;12.52;100.00;100576.59;4991065;28;20195;-74
2022/10/30 02:25:18;;;;;;;7.83;6.47;;;;;;;12.47;100.00;100580.13;4989739;28;20296;-75
2022/10/30 02:27:44;;;;;;;6.77;6.17;;;;;;;12.40;100.00;100575.03;4988298;28;20221;-75
2022/10/30 02:30:10;;;;;;;6.70;6.10;;;;;;;12.33;100.00;100567.31;4988978;28;20277;-74
2022/10/30 02:32:36;;;;;;;6.83;6.20;;;;;;;12.29;100.00;100567.38;4989259;28;20923;-74
2022/10/30 02:35:01;;;;;;;6.33;5.73;;;;;;;12.26;100.00;100570.00;4988929;28;20214;-74
2022/10/30 02:37:27;;;;;;;7.67;6.37;;;;;;;12.23;100.00;100575.22;4984109;28;20190;-74
2022/10/30 02:39:52;;;;;;;6.73;6.07;;;;;;;12.17;100.00;100570.94;4988384;28;20278;-75
2022/10/30 02:42:18;;;;;;;7.87;6.00;;;;;;;12.13;100.00;100564.94;4987387;28;20276;-73
2022/10/30 02:44:43;;;;;;;6.50;5.90;;;;;;;12.07;100.00;100570.19;4987627;28;20335;-74
2022/10/30 02:47:09;;;;;;;6.80;6.10;;;;;;;12.02;100.00;100572.00;4987176;28;20189;-74
2022/10/30 02:49:35;;;;;;;6.37;5.77;;;;;;;11.96;100.00;100565.06;4990691;28;20207;-74
2022/10/30 02:52:00;;;;;;;6.53;5.90;;;;;;;11.93;100.00;100561.66;4981656;28;20270;-74
2022/10/30 02:54:25;;;;;;;6.73;6.03;;;;;;;11.92;100.00;100567.72;4986865;28;20302;-74
2022/10/30 02:56:51;;;;;;;6.13;5.53;;;;;;;11.88;100.00;100569.50;4995403;28;20190;-75
2022/10/30 02:59:16;;;;;;;6.67;5.93;;;;;;;11.86;100.00;100571.25;4984156;28;20196;-74
2022/10/30 03:01:42;;;;;;;5.90;5.40;;;;;;;11.85;100.00;100574.69;4988897;28;20238;-75
2022/10/30 03:04:07;;;;;;;5.50;5.00;;;;;;;11.82;100.00;100570.41;4988108;28;20225;-74
2022/10/30 03:06:33;;;;;;;6.07;5.47;;;;;;;11.80;100.00;100566.13;4987977;28;20189;-74
2022/10/30 03:08:58;;;;;;;6.10;5.47;;;;;;;11.77;100.00;100568.75;4989044;28;20197;-74
2022/10/30 03:11:23;;;;;;;6.73;5.10;;;;;;;11.74;100.00;100572.19;5000888;28;20194;-74
2022/10/30 03:13:49;;;;;;;5.80;5.27;;;;;;;11.72;100.00;100579.16;4988073;28;20288;-75
2022/10/30 03:16:32;;;;;;;6.37;5.77;;;;;;;11.68;100.00;100577.47;4984398;28;20232;-75
2022/10/30 03:18:58;;;;;;;6.70;6.00;;;;;;;11.63;100.00;100577.50;4988629;28;20612;-75
2022/10/30 03:21:26;;;;;;;5.83;5.33;;;;;;;11.59;100.00;100575.81;4992587;28;20275;-75
2022/10/30 03:23:52;;;;;;;6.37;5.77;;;;;;;11.58;100.00;100574.09;4981076;28;20210;-74
2022/10/30 03:26:19;;;;;;;5.83;5.03;;;;;;;11.59;100.00;100583.59;4984416;28;20221;-74
2022/10/30 03:28:44;;;;;;;6.67;5.30;;;;;;;11.58;100.00;100574.94;4985743;28;20293;-74
2022/10/30 03:31:19;;;;;;;6.13;5.53;;;;;;;11.61;100.00;100570.59;4987971;28;20265;-74
2022/10/30 03:33:45;;;;;;;7.10;5.30;;;;;;;11.59;100.00;100570.63;4988145;28;20814;-75
2022/10/30 03:36:12;;;;;;;6.33;5.37;;;;;;;11.58;100.00;100572.34;4987523;28;20181;-74
2022/10/30 03:38:37;;;;;;;5.20;4.70;;;;;;;11.58;100.00;100568.91;4984917;28;20220;-74
2022/10/30 03:41:04;;;;;;;6.57;5.00;;;;;;;11.58;100.00;100577.53;4984287;28;20220;-74
2022/10/30 03:43:29;;;;;;;7.00;5.50;;;;;;;11.55;100.00;100567.22;4996251;28;20303;-75
2022/10/30 03:45:55;;;;;;;5.70;5.20;;;;;;;11.55;100.00;100572.38;4986911;28;20284;-74
2022/10/30 03:48:23;;;;;;;5.93;5.20;;;;;;;11.49;100.00;100575.03;4988278;28;20240;-75
2022/10/30 03:50:50;;;;;;;5.37;4.63;;;;;;;11.45;100.00;100570.72;4985458;28;20641;-74
2022/10/30 03:53:16;;;;;;;5.07;4.67;;;;;;;11.39;100.00;100570.78;4986589;28;20305;-74
2022/10/30 03:55:41;;;;;;;6.83;4.80;;;;;;;11.36;100.00;100576.00;4986797;28;20272;-74
2022/10/30 03:58:07;;;;;;;5.93;4.83;;;;;;;11.30;100.00;100576.91;4985238;28;20211;-74
2022/10/30 04:00:33;;;;;;;6.03;5.43;;;;;;;11.25;100.00;100573.47;4991189;28;20227;-74
2022/10/30 04:02:59;;;;;;;7.53;5.47;;;;;;;11.21;100.00;100585.59;4984311;28;20191;-73
2022/10/30 04:05:25;;;;;;;5.83;5.23;;;;;;;11.19;100.00;100582.16;4986149;28;20209;-74
2022/10/30 04:07:56;;;;;;;6.20;5.60;;;;;;;11.20;100.00;100577.81;4985613;28;20290;-74
2022/10/30 04:10:21;;;;;;;6.77;5.00;;;;;;;11.21;100.00;100575.22;5001387;28;20345;-74
2022/10/30 04:12:46;;;;;;;6.43;5.43;;;;;;;11.22;100.00;100576.06;4979545;28;20710;-74
2022/10/30 04:15:11;;;;;;;5.40;4.87;;;;;;;11.22;100.00;100565.72;4984968;28;20211;-74
2022/10/30 04:17:37;;;;;;;5.20;4.53;;;;;;;11.23;100.00;100572.63;4983867;28;20557;-74
2022/10/30 04:20:02;;;;;;;6.10;5.47;;;;;;;11.19;100.00;100561.44;4986968;28;20259;-74
2022/10/30 04:22:28;;;;;;;6.87;5.10;;;;;;;11.16;100.00;100566.63;4986333;28;20236;-73
2022/10/30 04:24:53;;;;;;;6.67;5.00;;;;;;;11.12;100.00;100557.16;4980193;28;20218;-75
2022/10/30 04:27:19;;;;;;;5.40;4.90;;;;;;;11.09;100.00;100563.22;4984671;28;20344;-74
2022/10/30 04:29:45;;;;;;;6.93;5.37;;;;;;;11.07;100.00;100569.28;4985925;28;20196;-74
2022/10/30 04:32:11;;;;;;;5.17;4.67;;;;;;;11.04;100.00;100566.72;4987553;28;20186;-74
2022/10/30 04:34:38;;;;;;;5.73;4.90;;;;;;;11.00;100.00;100570.19;4985139;28;20236;-74
2022/10/30 04:37:06;;;;;;;6.20;4.97;;;;;;;10.98;100.00;100573.63;4999996;28;20608;-75
2022/10/30 04:39:32;;;;;;;5.17;4.67;;;;;;;10.98;100.00;100578.81;4987489;28;20185;-74
2022/10/30 04:41:57;;;;;;;4.73;4.33;;;;;;;10.97;100.00;100568.47;4984917;28;20575;-74
2022/10/30 04:44:23;;;;;;;5.33;4.50;;;;;;;10.94;100.00;100566.78;4984969;28;20229;-75
2022/10/30 04:46:48;;;;;;;4.90;4.50;;;;;;;10.91;100.00;100564.19;4987173;28;20581;-74
2022/10/30 04:49:14;;;;;;;5.43;4.83;;;;;;;10.90;100.00;100564.19;4982569;28;20197;-74
2022/10/30 04:51:39;;;;;;;4.97;4.17;;;;;;;10.86;100.00;100568.53;4985672;28;20197;-74
2022/10/30 04:54:04;;;;;;;7.13;4.80;;;;;;;10.81;100.00;100570.31;4981587;28;20294;-74
2022/10/30 04:56:31;;;;;;;4.93;4.43;;;;;;;10.77;100.00;100569.44;4988098;28;20212;-74
2022/10/30 04:58:57;;;;;;;4.20;3.80;;;;;;;10.74;100.00;100560.84;4984042;28;20191;-74
2022/10/30 05:01:22;;;;;;;4.17;3.87;;;;;;;10.70;100.00;100556.53;4983988;28;20224;-75
2022/10/30 05:03:48;;;;;;;5.77;4.00;;;;;;;10.70;100.00;100548.78;4986292;28;20232;-74
2022/10/30 05:06:22;;;;;;;5.87;4.40;;;;;;;10.71;100.00;100553.97;4989488;28;20189;-74
2022/10/30 05:08:48;;;;;;;4.43;4.03;;;;;;;10.67;100.00;100557.44;4984859;28;20255;-74
2022/10/30 05:11:14;;;;;;;5.53;4.50;;;;;;;10.63;100.00;100554.00;4987521;28;20287;-74
2022/10/30 05:13:39;;;;;;;5.20;4.47;;;;;;;10.59;100.00;100551.44;4983668;28;20221;-74
2022/10/30 05:16:05;;;;;;;4.47;4.07;;;;;;;10.56;100.00;100552.28;5000856;28;20239;-74
2022/10/30 05:18:30;;;;;;;4.60;4.00;;;;;;;10.55;100.00;100549.72;4986073;28;20194;-74
2022/10/30 05:20:55;;;;;;;4.50;4.10;;;;;;;10.51;100.00;100551.47;4987072;28;20676;-74
2022/10/30 05:23:20;;;;;;;4.77;4.27;;;;;;;10.47;100.00;100548.03;4982498;28;20224;-74
2022/10/30 05:25:46;;;;;;;5.93;4.37;;;;;;;10.43;100.00;100548.91;5001754;28;20678;-74
2022/10/30 05:28:11;;;;;;;5.20;4.07;;;;;;;10.39;100.00;100549.78;4985952;28;20191;-74
2022/10/30 05:30:36;;;;;;;5.70;4.23;;;;;;;10.34;100.00;100549.78;4989124;28;20591;-74
2022/10/30 05:33:08;;;;;;;6.17;4.27;;;;;;;10.31;100.00;100554.97;4985151;28;20925;-75
2022/10/30 05:35:34;;;;;;;5.73;4.17;;;;;;;10.29;100.00;100560.97;4987166;28;20558;-74
2022/10/30 05:38:02;;;;;;;5.13;4.57;;;;;;;10.25;100.00;100549.78;4986619;28;20816;-74
2022/10/30 05:40:27;;;;;;;4.60;4.20;;;;;;;10.22;100.00;100554.97;5003107;28;20278;-74
2022/10/30 05:42:53;;;;;;;4.13;3.80;;;;;;;10.21;100.00;100561.88;4998591;28;20383;-73
2022/10/30 05:45:18;;;;;;;4.67;4.23;;;;;;;10.22;100.00;100562.72;4987656;28;20718;-74
2022/10/30 05:47:44;;;;;;;4.67;4.27;;;;;;;10.21;100.00;100567.06;4986453;28;20193;-74
2022/10/30 05:50:11;;;;;;;5.10;4.27;;;;;;;10.21;100.00;100566.19;4985928;28;20239;-74
2022/10/30 05:52:39;;;;;;;4.83;4.33;;;;;;;10.20;100.00;100569.66;4981854;28;20189;-74
2022/10/30 05:55:04;;;;;;;5.13;4.63;;;;;;;10.22;100.00;100570.50;4985115;28;20569;-75
2022/10/30 05:57:32;;;;;;;5.87;4.67;;;;;;;10.21;100.00;100571.34;4983175;28;21332;-74
2022/10/30 05:59:57;;;;;;;5.53;4.43;;;;;;;10.22;100.00;100568.78;4985406;28;20212;-74
2022/10/30 06:02:22;;;;;;;5.07;4.57;;;;;;;10.22;100.00;100570.50;4981421;28;20501;-74
2022/10/30 06:04:48;;;;;;;4.90;4.40;;;;;;;10.21;100.00;100572.22;4985269;28;20618;-75
2022/10/30 06:07:13;;;;;;;5.13;4.60;;;;;;;10.20;100.00;100574.84;4985605;28;20233;-74
2022/10/30 06:09:38;;;;;;;7.50;4.23;;;;;;;10.16;100.00;100575.69;4979985;28;20948;-74
2022/10/30 06:12:04;;;;;;;4.83;4.23;;;;;;;10.14;100.00;100572.25;4997959;28;20189;-74
2022/10/30 06:14:29;;;;;;;5.10;4.07;;;;;;;10.13;100.00;100578.28;4984707;28;20224;-74
2022/10/30 06:16:55;;;;;;;4.37;3.80;;;;;;;10.10;100.00;100586.06;4982134;28;20189;-74
2022/10/30 06:19:20;;;;;;;4.20;3.70;;;;;;;10.05;100.00;100580.88;4976680;28;20194;-74
2022/10/30 06:21:46;;;;;;;4.97;3.77;;;;;;;10.03;100.00;100590.38;4983221;28;20253;-74
2022/10/30 06:24:11;;;;;;;4.13;3.73;;;;;;;10.02;100.00;100593.81;4982286;28;20221;-74
2022/10/30 06:26:36;;;;;;;5.50;4.07;;;;;;;10.02;100.00;100589.53;4980523;28;20882;-74
2022/10/30 06:29:02;;;;;;;5.00;4.40;;;;;;;10.05;100.00;100602.47;4986027;28;20220;-74
2022/10/30 06:31:27;;;;;;;5.37;4.80;;;;;;;10.09;100.00;100597.25;4987698;28;20340;-74
2022/10/30 06:33:53;;;;;;;7.20;6.00;;;;;;;10.14;100.00;100598.13;4983290;28;20881;-74
2022/10/30 06:36:18;;;;;;;10.20;8.10;;;;;;;10.19;100.00;100602.41;4984310;28;20199;-74
2022/10/30 06:38:43;;;;;;;11.13;10.00;;;;;;;10.22;100.00;100598.94;4981959;28;20193;-74
2022/10/30 06:41:09;;;;;;;10.97;9.97;;;;;;;10.26;100.00;100598.09;4988077;28;20210;-74
2022/10/30 06:43:34;;;;;;;11.93;10.83;;;;;;;10.32;100.00;100598.06;4982326;28;20219;-74
2022/10/30 06:46:00;;;;;;;12.17;10.93;;;;;;;10.36;100.00;100597.19;4983207;28;20204;-74
2022/10/30 06:48:25;;;;;;;11.80;10.63;;;;;;;10.39;100.00;100598.94;4989310;28;20197;-74
2022/10/30 06:50:56;;;;;;;10.67;9.67;;;;;;;10.44;100.00;100593.75;4985323;28;20189;-74
2022/10/30 06:53:21;;;;;;;8.60;7.77;;;;;;;10.48;100.00;100598.91;4982054;28;20554;-74
2022/10/30 06:55:57;;;;;;;8.97;8.17;;;;;;;10.56;100.00;100587.69;4984595;28;20307;-74
2022/10/30 06:58:23;;;;;;;7.53;6.37;;;;;;;10.62;100.00;100593.69;4986886;28;20334;-74
2022/10/30 07:00:48;;;;;;;7.07;6.47;;;;;;;10.72;100.00;100596.22;4984100;28;20221;-74
2022/10/30 07:03:14;;;;;;;6.67;6.07;;;;;;;10.81;100.00;100594.47;4984019;28;20202;-74
2022/10/30 07:05:39;;;;;;;5.80;5.20;;;;;;;10.92;100.00;100596.13;4987368;28;20272;-72
2022/10/30 07:08:04;;;;;;;6.97;5.27;;;;;;;11.01;100.00;100598.69;4987600;28;20189;-74
2022/10/30 07:10:30;;;;;;;6.50;4.70;;;;;;;11.08;100.00;100599.50;4988985;28;20220;-73
2022/10/30 07:12:57;;;;;;;6.30;4.47;;;;;;;11.18;100.00;100603.75;5001126;28;20208;-74
2022/10/30 07:15:22;;;;;;;4.50;4.10;;;;;;;11.30;100.00;100608.00;4982137;28;20227;-74
2022/10/30 07:17:55;;;;;;;5.53;3.53;;;;;;;11.41;100.00;100608.78;4986775;28;20654;-74
2022/10/30 07:20:21;;;;;;;5.33;3.93;;;;;;;11.47;100.00;100602.69;4985732;28;20678;-74
2022/10/30 07:22:47;;;;;;;3.87;3.50;;;;;;;11.53;100.00;100601.75;5000948;28;20213;-74
2022/10/30 07:25:12;;;;;;;5.00;3.77;;;;;;;11.59;100.00;100609.50;4982033;28;20310;-74
2022/10/30 07:27:45;;;;;;;3.87;3.57;;;;;;;11.68;100.00;100601.63;4990253;28;20255;-74
2022/10/30 07:30:15;;;;;;;7.60;4.10;;;;;;;11.79;100.00;100608.50;4982713;28;20189;-74
2022/10/30 07:32:42;;;;;;;5.00;3.40;;;;;;;11.93;100.00;100603.16;4987632;28;20185;-74
2022/10/30 07:35:08;;;;;;;4.33;3.60;;;;;;;12.07;100.00;100603.91;4985892;28;20218;-74
2022/10/30 07:37:33;;;;;;;4.00;3.60;;;;;;;12.22;100.00;100596.84;4990019;28;20221;-74
2022/10/30 07:39:59;;;;;;;4.70;3.83;;;;;;;12.30;100.00;100601.06;4987072;28;20196;-74
2022/10/30 07:42:24;;;;;;;4.37;3.97;;;;;;;12.40;100.00;100601.00;4987175;28;20212;-74
2022/10/30 07:44:50;;;;;;;6.83;3.70;;;;;;;12.45;100.00;100606.97;4987146;28;20238;-74
2022/10/30 07:47:15;;;;;;;4.10;3.70;;;;;;;12.52;100.00;100607.75;4990153;28;20320;-74
2022/10/30 07:49:40;;;;;;;7.27;4.10;;;;;;;12.59;100.00;100606.81;4989348;28;20663;-74
2022/10/30 07:52:06;;;;;;;6.90;4.43;;;;;;;12.69;100.00;100615.34;5004139;28;20708;-74
2022/10/30 07:54:31;;;;;;;4.67;4.07;;;;;;;12.78;100.00;100618.66;4989865;28;20873;-74
2022/10/30 07:56:57;;;;;;;6.33;4.13;;;;;;;12.90;100.00;100609.03;5000365;28;20292;-74
2022/10/30 07:59:23;;;;;;;10.37;4.73;;;;;;;13.02;100.00;100618.38;4997013;28;20258;-75
2022/10/30 08:01:49;;;;;;;7.40;4.37;;;;;;;13.15;100.00;100627.72;4984143;28;20337;-74
2022/10/30 08:04:14;;;;;;;5.70;3.97;;;;;;;13.25;100.00;100616.31;4986399;28;20235;-74
2022/10/30 08:06:40;;;;;;;7.33;4.70;;;;;;;13.38;100.00;100619.59;4988478;28;21087;-74
2022/10/30 08:09:05;;;;;;;6.57;4.07;;;;;;;13.51;100.00;100619.44;4988450;28;20197;-74
2022/10/30 08:11:31;;;;;;;7.60;4.23;;;;;;;13.63;100.00;100615.75;4991047;28;20709;-74
2022/10/30 08:13:56;;;;;;;6.70;4.60;;;;;;;13.71;100.00;100617.34;4985804;28;20349;-74
2022/10/30 08:16:22;;;;;;;5.77;3.97;;;;;;;13.79;100.00;100629.38;4988589;28;20582;-75
2022/10/30 08:18:48;;;;;;;6.63;3.70;;;;;;;13.90;100.00;100624.00;4986124;28;20192;-74
2022/10/30 08:21:13;;;;;;;7.70;4.10;;;;;;;13.99;100.00;100629.03;4988135;28;20241;-75
2022/10/30 08:23:38;;;;;;;5.37;3.60;;;;;;;14.06;100.00;100632.38;4998771;28;20247;-74
2022/10/30 08:26:04;;;;;;;5.27;2.80;;;;;;;14.20;100.00;100626.94;5024487;28;20306;-74
2022/10/30 08:28:30;;;;;;;4.77;3.43;;;;;;;14.32;100.00;100626.72;4997301;28;20205;-74
2022/10/30 08:30:57;;;;;;;3.97;2.90;;;;;;;14.43;100.00;100627.34;4989644;28;20220;-74
2022/10/30 08:33:22;;;;;;;4.50;3.00;;;;;;;14.55;100.00;100627.97;5006595;28;20758;-75
2022/10/30 08:35:55;;;;;;;4.47;3.10;;;;;;;14.66;100.00;100623.44;4989110;28;20284;-75
2022/10/30 08:38:21;;;;;;;3.20;2.90;;;;;;;14.78;100.00;100630.16;4984787;28;20196;-74
2022/10/30 08:40:46;;;;;;;3.47;3.10;;;;;;;14.90;100.00;100621.22;4984663;28;20272;-74
2022/10/30 08:43:12;;;;;;;4.57;3.23;;;;;;;14.99;100.00;100618.41;4985223;28;20276;-75
2022/10/30 08:45:37;;;;;;;4.03;2.77;;;;;;;15.12;100.00;100626.81;4981714;28;20196;-74
2022/10/30 08:48:04;;;;;;;4.83;2.83;;;;;;;15.25;100.00;100622.19;4984310;28;20194;-75
2022/10/30 08:50:31;;;;;;;6.20;3.57;;;;;;;15.38;100.00;100626.22;4981929;28;20192;-75
2022/10/30 08:53:04;;;;;;;5.70;3.23;;;;;;;15.46;100.00;100623.44;4978190;28;20236;-76
2022/10/30 08:55:31;;;;;;;6.90;3.40;;;;;;;15.56;100.00;100624.09;5001936;28;20306;-75
2022/10/30 08:57:56;;;;;;;4.97;3.17;;;;;;;15.65;100.00;100623.00;4982449;28;20193;-74
2022/10/30 09:00:21;;;;;;;5.40;3.10;;;;;;;15.76;100.00;100612.28;4983562;28;20588;-75
2022/10/30 09:02:47;;;;;;;8.20;3.60;;;;;;;15.82;100.00;100623.41;4981166;28;20300;-75
2022/10/30 09:05:12;;;;;;;4.37;3.80;;;;;;;15.88;100.00;100616.38;4984596;28;20312;-75
2022/10/30 09:07:37;;;;;;;8.63;3.97;;;;;;;15.92;100.00;100620.63;4985449;28;20192;-75
2022/10/30 09:10:04;;;;;;;6.03;3.37;;;;;;;16.00;100.00;100616.91;4983154;28;20638;-75
2022/10/30 09:12:29;;;;;;;7.50;3.70;;;;;;;16.05;100.00;100618.53;4981554;28;20231;-76
2022/10/30 09:14:54;;;;;;;4.53;3.57;;;;;;;16.13;100.00;100613.97;4982384;28;20653;-75
2022/10/30 09:17:20;;;;;;;5.83;3.63;;;;;;;16.23;100.00;100620.66;4981136;28;20210;-75
2022/10/30 09:19:45;;;;;;;3.97;3.20;;;;;;;16.35;100.00;100623.81;4984419;28;20259;-76
2022/10/30 09:22:11;;;;;;;6.57;4.00;;;;;;;16.40;100.00;100617.59;4984806;28;20335;-75
2022/10/30 09:24:37;;;;;;;8.83;3.50;;;;;;;16.44;100.00;100613.13;4979781;28;20290;-76
2022/10/30 09:27:03;;;;;;;4.63;3.13;;;;;;;16.55;100.00;100611.06;4982884;28;22039;-75
2022/10/30 09:29:30;;;;;;;5.73;3.40;;;;;;;16.64;100.00;100620.38;4984791;28;20197;-75
2022/10/30 09:31:55;;;;;;;5.50;3.10;;;;;;;16.76;100.00;100616.56;4982796;28;20554;-74
2022/10/30 09:34:20;;;;;;;6.10;2.93;;;;;;;16.84;100.00;100619.81;4981226;28;20217;-76
2022/10/30 09:36:46;;;;;;;7.77;3.47;;;;;;;16.88;100.00;100617.94;4983844;28;20734;-74
2022/10/30 09:39:12;;;;;;;3.63;3.10;;;;;;;16.89;100.00;100615.31;4981645;28;20199;-74
2022/10/30 09:41:59;;;;;;;8.97;3.60;;;;;;;16.97;100.00;100622.06;4966352;28;20292;-74
2022/10/30 09:45:02;;;;;;;4.07;3.20;;;;;;;17.06;100.00;100625.28;4979144;28;20263;-73
2022/10/30 09:47:36;;;;;;;5.10;3.20;;;;;;;17.23;100.00;100615.19;4987087;28;20190;-74
2022/10/30 09:50:17;;;;;;;5.47;3.43;;;;;;;17.35;100.00;100617.44;4979693;28;20221;-74
2022/10/30 09:53:04;;;;;;;4.67;3.00;;;;;;;17.47;100.00;100610.94;4995938;28;20205;-73
2022/10/30 09:55:38;;;;;;;3.47;2.93;;;;;;;17.63;100.00;100616.53;4983698;28;20636;-75
2022/10/30 09:58:17;;;;;;;4.10;3.00;;;;;;;17.77;100.00;100613.47;4980715;28;20607;-74
2022/10/30 10:01:06;;;;;;;4.70;3.23;;;;;;;17.81;100.00;100610.69;4979942;28;20607;-75
2022/10/30 10:03:47;;;;;;;4.70;3.20;;;;;;;17.83;100.00;100610.63;4977513;28;20214;-74
2022/10/30 10:06:18;;;;;;;4.47;3.07;;;;;;;17.89;100.00;100606.94;4979053;28;21048;-75
2022/10/30 10:09:05;;;;;;;4.37;3.03;;;;;;;17.94;100.00;100603.22;4982651;28;20196;-75
2022/10/30 10:11:35;;;;;;;5.10;3.37;;;;;;;17.99;100.00;100616.22;4982133;28;20206;-74
2022/10/30 10:14:25;;;;;;;4.17;3.20;;;;;;;18.08;100.00;100612.41;4979868;28;20308;-74
2022/10/30 10:16:52;;;;;;;4.70;3.53;;;;;;;18.17;100.00;100608.59;4979065;28;20213;-74
2022/10/30 10:19:45;;;;;;;4.37;3.30;;;;;;;18.23;100.00;100609.25;4982373;28;20203;-74
2022/10/30 10:22:20;;;;;;;5.73;3.33;;;;;;;18.33;100.00;100614.16;4985512;28;20602;-74
2022/10/30 10:24:46;;;;;;;3.83;2.63;;;;;;;18.40;100.00;100613.00;4982936;28;20733;-74
2022/10/30 10:27:36;;;;;;;3.80;3.33;;;;;;;18.52;100.00;100612.59;4988440;28;20200;-74
2022/10/30 10:30:17;;;;;;;5.73;3.17;;;;;;;18.59;100.00;100613.22;4980418;28;20232;-75
2022/10/30 10:33:13;;;;;;;3.67;3.20;;;;;;;18.63;100.00;100606.09;4982329;28;20187;-73
2022/10/30 10:35:56;;;;;;;6.07;3.13;;;;;;;18.73;100.00;100604.81;4983495;28;20189;-74
2022/10/30 10:38:30;;;;;;;5.17;3.20;;;;;;;18.86;100.00;100602.59;4982835;28;20202;-74
2022/10/30 10:41:28;;;;;;;5.70;3.90;;;;;;;18.95;100.00;100607.50;4983093;28;20209;-75
2022/10/30 10:44:18;;;;;;;4.17;2.97;;;;;;;19.05;100.00;100605.38;4982758;28;20249;-74
2022/10/30 10:46:46;;;;;;;4.80;3.13;;;;;;;19.10;100.00;100600.81;4984233;28;20201;-75
2022/10/30 10:49:23;;;;;;;3.57;2.90;;;;;;;19.14;100.00;100598.91;4981109;28;20689;-75
2022/10/30 10:51:51;;;;;;;5.07;3.57;;;;;;;19.22;100.00;100593.34;4982522;28;20609;-75
2022/10/30 10:54:22;;;;;;;4.23;2.90;;;;;;;19.31;100.00;100596.47;4981139;28;20688;-75
2022/10/30 10:56:50;;;;;;;5.53;3.33;;;;;;;19.37;100.00;100590.13;4983226;28;20279;-75
2022/10/30 10:59:20;;;;;;;3.90;3.30;;;;;;;19.40;100.00;100586.50;4981398;28;20197;-76
2022/10/30 11:01:55;;;;;;;4.43;3.20;;;;;;;19.39;100.00;100590.91;4977242;28;20217;-75
2022/10/30 11:04:42;;;;;;;5.67;3.50;;;;;;;19.30;100.00;100586.88;4983075;28;20299;-75
2022/10/30 11:07:19;;;;;;;5.00;3.20;;;;;;;19.28;100.00;100591.34;4983861;28;20304;-74
2022/10/30 11:09:49;;;;;;;4.03;3.07;;;;;;;19.27;100.00;100588.78;4984657;28;20204;-75
2022/10/30 11:12:15;;;;;;;5.37;3.03;;;;;;;19.25;100.00;100580.13;4982893;28;20560;-73
2022/10/30 11:14:40;;;;;;;4.47;3.03;;;;;;;19.29;100.00;100582.56;4982964;28;20859;-76
2022/10/30 11:17:21;;;;;;;4.20;2.83;;;;;;;19.35;100.00;100581.44;4984654;28;20193;-74
2022/10/30 11:19:50;;;;;;;4.50;3.53;;;;;;;19.39;100.00;100577.78;4981365;28;20192;-74
2022/10/30 11:22:27;;;;;;;4.83;3.23;;;;;;;19.50;100.00;100578.19;4984452;28;20286;-75
2022/10/30 11:24:52;;;;;;;6.13;3.43;;;;;;;19.56;100.00;100573.63;4983415;28;20246;-74